Main page
METAR-TAF:

METAR-TAF

Airports :

Montevideo–Chippewa County Airport

Montevideo, Minnesota, United States

latitude: 44-58N, longitude: 095-43W, elevation: 1033 ft

Current weather observation

The report was made 36 minutes ago, at 21:15 UTC
Wind 16 mph from the South/Southeast with gusts up to 22 mph
Temperature 70°F
Humidity 30%
Pressure 29.88 in. Hg
Visibility: 10 miles
Scattered clouds at a height of 6500 ft

METAR: KMVE 192115Z AUTO 15014G19KT 10SM SCT065 21/03 A2988 RMK AO2 LTG DSNT S

Time: 16:51 (21:51 UTC)


TAF: missing

Weather observations and forecasts of more than 4000 airports (METAR and TAF reports).

The available stations are represented by yellow and red dots on the map.

Hover mouse over dot to see the name of the station.

Then click to see weather observations and forecasts.

To change the map : click on the green buttons with a black cross to zoom in, on the green button with a dash to zoom out, or on the green arrows for adjacent maps.


METAR-TAF: